Private Wetterstation Wechselburg
Wetterdaten: Woche 19.06.23 - 25.06.23 (KW25)
Datum Zeit Temp. +2m Bodentemp. Temp.+5cm Temp. Wind Windchill X Diff Temp. Feuchte +2m Feuchte +5cm Luftdruck Regen Wind Richtung Sonnenschein Taupunkt Windchill Windben
19.06.2023 00:00 15,9 C 18,6 C 15,0 C 29,0 C 29,0 C 13,1 C 79 % 73 % 1014,8 hPa 0,0 l/m 0,0 km/h (0 Bft) - - 0,00 h 12,2 C 29,0 C 0,0 km/h (0 Bft)
19.06.2023 01:00 14,7 C 18,6 C 14,0 C 29,0 C 29,0 C 14,3 C 81 % 75 % 1014,6 hPa 0,0 l/m 0,0 km/h (0 Bft) - - 0,00 h 11,5 C 29,0 C 0,0 km/h (0 Bft)
19.06.2023 02:00 14,3 C 18,4 C 14,0 C 29,0 C 29,0 C 14,7 C 83 % 75 % 1014,3 hPa 0,0 l/m 0,0 km/h (0 Bft) - - 0,00 h 11,4 C 29,0 C 0,0 km/h (0 Bft)
19.06.2023 03:00 14,2 C 18,3 C 14,1 C 29,0 C 29,0 C 14,8 C 84 % 76 % 1014,0 hPa 0,0 l/m 0,0 km/h (0 Bft) - - 0,00 h 11,6 C 29,0 C 0,0 km/h (0 Bft)
19.06.2023 04:00 14,3 C 18,2 C 14,1 C 29,0 C 29,0 C 14,7 C 85 % 76 % 1013,6 hPa 0,0 l/m 0,0 km/h (0 Bft) - - 0,00 h 11,8 C 29,0 C 0,0 km/h (0 Bft)
19.06.2023 05:00 14,4 C 18,0 C 14,4 C 29,0 C 29,0 C 14,6 C 85 % 76 % 1013,3 hPa 0,0 l/m 0,0 km/h (0 Bft) - - 0,83 h 11,9 C 29,0 C 0,0 km/h (0 Bft)
19.06.2023 06:00 15,0 C 17,9 C 15,1 C 29,0 C 29,0 C 14,0 C 86 % 75 % 1013,5 hPa 0,0 l/m 0,0 km/h (0 Bft) - - 1,00 h 12,6 C 29,0 C 0,0 km/h (0 Bft)
19.06.2023 07:00 16,1 C 17,8 C 16,4 C 29,0 C 29,0 C 12,9 C 86 % 75 % 1013,7 hPa 0,0 l/m 0,0 km/h (0 Bft) - - 1,00 h 13,7 C 29,0 C 0,0 km/h (0 Bft)
19.06.2023 08:00 17,8 C 17,7 C 17,9 C 29,0 C 29,0 C 11,2 C 82 % 74 % 1014,1 hPa 0,0 l/m 0,0 km/h (0 Bft) - - 1,05 h 14,7 C 29,0 C 0,0 km/h (0 Bft)
19.06.2023 09:00 19,1 C 17,8 C 18,7 C 29,0 C 29,0 C 9,9 C 79 % 73 % 1014,1 hPa 0,0 l/m 0,0 km/h (0 Bft) - - 0,95 h 15,3 C 29,0 C 0,0 km/h (0 Bft)
19.06.2023 10:00 19,6 C 17,9 C 19,1 C 29,0 C 29,0 C 9,4 C 80 % 78 % 1014,5 hPa 0,0 l/m 0,0 km/h (0 Bft) - - 0,87 h 16,1 C 29,0 C 0,0 km/h (0 Bft)
19.06.2023 11:00 23,2 C 17,7 C 23,0 C 29,0 C 29,0 C 5,8 C 73 % 69 % 1014,4 hPa 0,0 l/m 0,0 km/h (0 Bft) - - 1,13 h 18,0 C 29,0 C 0,0 km/h (0 Bft)
19.06.2023 12:00 27,2 C 17,8 C 24,9 C 29,0 C 29,0 C 1,8 C 53 % 59 % 1014,3 hPa 0,0 l/m 0,0 km/h (0 Bft) - - 0,00 h 16,7 C 29,0 C 0,0 km/h (0 Bft)
19.06.2023 13:00 29,9 C 18,0 C 27,3 C 29,6 C 29,0 C 0,0 C 45 % 53 % 1013,9 hPa 0,0 l/m 0,0 km/h (0 Bft) - - 0,00 h 16,6 C 29,0 C 0,0 km/h (0 Bft)
19.06.2023 14:00 30,0 C 18,2 C 29,1 C 29,7 C 29,0 C 0,0 C 44 % 50 % 1013,9 hPa 0,0 l/m 0,0 km/h (0 Bft) - - 0,00 h 16,5 C 29,0 C 0,0 km/h (0 Bft)
19.06.2023 15:00 29,8 C 18,4 C 29,7 C 29,5 C 29,0 C 0,0 C 44 % 47 % 1013,7 hPa 0,0 l/m 0,0 km/h (0 Bft) - - 0,00 h 16,2 C 29,0 C 0,0 km/h (0 Bft)
19.06.2023 16:00 29,9 C 18,6 C 30,2 C 29,6 C 29,0 C 0,0 C 44 % 47 % 1013,6 hPa 0,0 l/m 0,0 km/h (0 Bft) - - 0,00 h 16,4 C 29,0 C 0,0 km/h (0 Bft)
19.06.2023 17:00 30,4 C 18,9 C 30,3 C 29,9 C 29,0 C 0,0 C 43 % 46 % 1013,6 hPa 0,0 l/m 0,0 km/h (0 Bft) - - 0,00 h 16,5 C 29,0 C 0,0 km/h (0 Bft)
19.06.2023 18:00 29,5 C 19,1 C 27,5 C 29,4 C 29,0 C 0,0 C 47 % 50 % 1013,3 hPa 0,0 l/m 0,0 km/h (0 Bft) - - 0,00 h 16,8 C 29,0 C 0,0 km/h (0 Bft)
19.06.2023 19:00 28,1 C 19,3 C 26,0 C 29,0 C 29,0 C 0,9 C 54 % 56 % 1013,2 hPa 0,0 l/m 0,0 km/h (0 Bft) - - 0,00 h 17,9 C 29,0 C 0,0 km/h (0 Bft)
19.06.2023 20:00 26,3 C 19,5 C 23,9 C 29,0 C 29,0 C 2,7 C 63 % 67 % 1013,4 hPa 0,0 l/m 0,0 km/h (0 Bft) - - 0,92 h 18,5 C 29,0 C 0,0 km/h (0 Bft)
19.06.2023 21:00 23,8 C 19,6 C 22,1 C 29,0 C 29,0 C 5,3 C 71 % 73 % 1013,5 hPa 0,0 l/m 0,0 km/h (0 Bft) - - 0,25 h 18,3 C 29,0 C 0,0 km/h (0 Bft)
19.06.2023 22:00 21,9 C 19,8 C 20,6 C 29,0 C 29,0 C 7,1 C 76 % 77 % 1014,0 hPa 0,0 l/m 0,0 km/h (0 Bft) - - 0,00 h 17,6 C 29,0 C 0,0 km/h (0 Bft)
19.06.2023 23:00 20,1 C 20,0 C 18,9 C 29,0 C 29,0 C 8,9 C 80 % 80 % 1014,1 hPa 0,0 l/m 0,0 km/h (0 Bft) - - 0,00 h 16,6 C 29,0 C 0,0 km/h (0 Bft)
20.06.2023 00:00 18,8 C 20,0 C 17,9 C 29,0 C 29,0 C 10,2 C 82 % 82 % 1014,1 hPa 0,0 l/m 0,0 km/h (0 Bft) - - 0,00 h 15,7 C 29,0 C 0,0 km/h (0 Bft)
20.06.2023 01:00 18,0 C 19,9 C 17,5 C 29,0 C 29,0 C 11,0 C 85 % 83 % 1014,7 hPa 0,0 l/m 0,0 km/h (0 Bft) - - 0,00 h 15,5 C 29,0 C 0,0 km/h (0 Bft)
20.06.2023 02:00 17,6 C 19,8 C 17,3 C 26,1 C 24,2 C 9,4 C 87 % 83 % 1014,6 hPa 0,0 l/m 0,0 km/h (0 Bft) - - 0,00 h 15,4 C 24,2 C 0,0 km/h (0 Bft)
20.06.2023 03:00 17,1 C 19,7 C 16,6 C 11,4 C 0,0 C 0,0 C 87 % 83 % 1013,9 hPa 0,0 l/m 0,0 km/h (0 Bft) - - 0,00 h 14,9 C 0,0 C 0,0 km/h (0 Bft)
20.06.2023 04:00 16,8 C 19,5 C 16,5 C 11,2 C 0,0 C 0,0 C 87 % 84 % 1014,0 hPa 0,0 l/m 0,0 km/h (0 Bft) - - 0,00 h 14,6 C 0,0 C 0,0 km/h (0 Bft)
20.06.2023 05:00 16,9 C 19,4 C 17,5 C 11,2 C 0,0 C 0,0 C 88 % 84 % 1014,1 hPa 0,0 l/m 0,0 km/h (0 Bft) - - 0,00 h 14,9 C 0,0 C 0,0 km/h (0 Bft)
20.06.2023 06:00 18,2 C 19,2 C 19,5 C 12,2 C 0,0 C 0,0 C 88 % 81 % 1014,6 hPa 0,0 l/m 0,0 km/h (0 Bft) - - 0,00 h 16,2 C 0,0 C 0,0 km/h (0 Bft)
20.06.2023 07:00 21,2 C 18,9 C 21,2 C 14,1 C 0,0 C 0,0 C 82 % 77 % 1014,9 hPa 0,0 l/m 0,0 km/h (0 Bft) - - 0,00 h 18,1 C 0,0 C 0,0 km/h (0 Bft)
20.06.2023 08:00 21,9 C 18,9 C 21,4 C 14,6 C 0,0 C 0,0 C 78 % 76 % 1015,4 hPa 0,0 l/m 0,0 km/h (0 Bft) - - 0,00 h 17,9 C 0,0 C 0,0 km/h (0 Bft)
20.06.2023 09:00 22,1 C 19,0 C 21,4 C 14,7 C 0,0 C 0,0 C 77 % 77 % 1015,4 hPa 0,0 l/m 0,0 km/h (0 Bft) - - 0,00 h 17,9 C 0,0 C 0,0 km/h (0 Bft)
20.06.2023 10:00 23,8 C 19,0 C 23,4 C 15,9 C 0,0 C 0,0 C 74 % 73 % 1015,5 hPa 0,0 l/m 0,0 km/h (0 Bft) - - 0,00 h 18,9 C 0,0 C 0,0 km/h (0 Bft)
20.06.2023 11:00 24,9 C 19,0 C 24,5 C 16,6 C 0,0 C 0,0 C 70 % 68 % 1015,1 hPa 0,0 l/m 0,0 km/h (0 Bft) - - 0,00 h 19,0 C 0,0 C 0,0 km/h (0 Bft)
20.06.2023 12:00 26,6 C 19,2 C 26,2 C 17,7 C 0,0 C 0,0 C 65 % 63 % 1014,6 hPa 0,0 l/m 0,0 km/h (0 Bft) - - 0,00 h 19,5 C 0,0 C 0,0 km/h (0 Bft)
20.06.2023 13:00 27,4 C 19,4 C 27,2 C 18,3 C 0,0 C 0,0 C 62 % 62 % 1014,1 hPa 0,0 l/m 0,0 km/h (0 Bft) - - 0,00 h 19,5 C 0,0 C 0,0 km/h (0 Bft)
20.06.2023 14:00 27,2 C 19,6 C 26,5 C 18,1 C 0,0 C 0,0 C 64 % 64 % 1013,9 hPa 0,0 l/m 0,0 km/h (0 Bft) - - 0,00 h 19,7 C 0,0 C 0,0 km/h (0 Bft)
20.06.2023 15:00 27,5 C 19,8 C 27,5 C 18,3 C 0,0 C 0,0 C 66 % 65 % 1013,1 hPa 0,0 l/m 0,0 km/h (0 Bft) - - 0,00 h 20,4 C 0,0 C 0,0 km/h (0 Bft)
20.06.2023 16:00 28,1 C 19,9 C 28,1 C 18,7 C 0,0 C 0,0 C 63 % 62 % 1013,0 hPa 0,0 l/m 0,0 km/h (0 Bft) - - 0,00 h 20,4 C 0,0 C 0,0 km/h (0 Bft)
20.06.2023 17:00 28,5 C 20,0 C 28,0 C 19,0 C 0,0 C 0,0 C 63 % 64 % 1012,7 hPa 0,0 l/m 0,0 km/h (0 Bft) - - 0,00 h 20,7 C 0,0 C 0,0 km/h (0 Bft)
20.06.2023 18:00 28,1 C 20,1 C 27,5 C 18,8 C 0,0 C 0,0 C 63 % 63 % 1012,5 hPa 0,0 l/m 0,0 km/h (0 Bft) - - 0,00 h 20,4 C 0,0 C 0,0 km/h (0 Bft)
20.06.2023 19:00 27,0 C 20,3 C 25,8 C 18,0 C 0,0 C 0,0 C 65 % 66 % 1012,0 hPa 0,0 l/m 0,0 km/h (0 Bft) - - 0,00 h 19,8 C 0,0 C 0,0 km/h (0 Bft)
20.06.2023 20:00 24,9 C 20,4 C 22,9 C 16,6 C 0,0 C 0,0 C 69 % 73 % 1012,0 hPa 0,0 l/m 0,0 km/h (0 Bft) - - 0,00 h 18,9 C 0,0 C 0,0 km/h (0 Bft)
20.06.2023 21:00 22,5 C 20,5 C 21,2 C 15,0 C 0,0 C 0,0 C 76 % 79 % 1012,4 hPa 0,0 l/m 0,0 km/h (0 Bft) - - 0,00 h 18,1 C 0,0 C 0,0 km/h (0 Bft)
20.06.2023 22:00 20,8 C 20,6 C 19,8 C 13,9 C 0,0 C 0,0 C 80 % 81 % 1012,1 hPa 0,0 l/m 0,0 km/h (0 Bft) - - 0,00 h 17,2 C 0,0 C 0,0 km/h (0 Bft)
20.06.2023 23:00 20,1 C 20,6 C 19,7 C 13,4 C 0,0 C 0,0 C 84 % 82 % 1012,1 hPa 0,0 l/m 0,0 km/h (0 Bft) - - 0,00 h 17,2 C 0,0 C 0,0 km/h (0 Bft)
21.06.2023 00:00 19,9 C 20,6 C 19,5 C 13,3 C 0,0 C 0,0 C 85 % 83 % 1011,9 hPa 0,0 l/m 0,0 km/h (0 Bft) - - 0,00 h 17,3 C 0,0 C 0,0 km/h (0 Bft)
21.06.2023 01:00 20,5 C 20,6 C 19,8 C 13,7 C 0,0 C 0,0 C 86 % 89 % 1013,0 hPa 0,0 l/m 0,0 km/h (0 Bft) - - 0,00 h 18,0 C 0,0 C 0,0 km/h (0 Bft)
21.06.2023 02:00 20,7 C 20,6 C 19,6 C 13,8 C 0,0 C 0,0 C 86 % 90 % 1013,4 hPa 0,7 l/m 0,0 km/h (0 Bft) - - 0,00 h 18,2 C 0,0 C 0,0 km/h (0 Bft)
21.06.2023 03:00 19,8 C 20,5 C 18,7 C 13,2 C 0,0 C 0,0 C 86 % 90 % 1013,6 hPa 0,0 l/m 0,0 km/h (0 Bft) - - 0,00 h 17,5 C 0,0 C 0,0 km/h (0 Bft)
21.06.2023 04:00 18,8 C 20,5 C 18,0 C 12,5 C 0,0 C 0,0 C 87 % 90 % 1013,9 hPa 0,0 l/m 0,0 km/h (0 Bft) - - 0,00 h 16,6 C 0,0 C 0,0 km/h (0 Bft)
21.06.2023 05:00 18,3 C 20,4 C 18,4 C 12,2 C 0,0 C 0,0 C 88 % 90 % 1014,5 hPa 0,0 l/m 0,0 km/h (0 Bft) - - 0,00 h 16,2 C 0,0 C 0,0 km/h (0 Bft)
21.06.2023 06:00 20,3 C 20,1 C 20,4 C 13,5 C 0,0 C 0,0 C 87 % 89 % 1014,9 hPa 0,0 l/m 0,0 km/h (0 Bft) - - 0,00 h 18,1 C 0,0 C 0,0 km/h (0 Bft)
21.06.2023 07:00 23,5 C 19,8 C 21,4 C 15,6 C 0,0 C 0,0 C 78 % 83 % 1015,6 hPa 0,0 l/m 0,0 km/h (0 Bft) - - 0,00 h 19,4 C 0,0 C 0,0 km/h (0 Bft)
21.06.2023 08:00 24,7 C 19,8 C 22,9 C 16,5 C 0,0 C 0,0 C 72 % 76 % 1016,1 hPa 0,0 l/m 0,0 km/h (0 Bft) - - 0,00 h 19,2 C 0,0 C 0,0 km/h (0 Bft)
21.06.2023 09:00 25,6 C 19,8 C 24,0 C 17,1 C 0,0 C 0,0 C 67 % 71 % 1016,4 hPa 0,0 l/m 0,0 km/h (0 Bft) - - 0,00 h 19,1 C 0,0 C 0,0 km/h (0 Bft)
21.06.2023 10:00 26,9 C 19,9 C 25,1 C 17,9 C 0,0 C 0,0 C 64 % 68 % 1016,4 hPa 0,0 l/m 0,0 km/h (0 Bft) - - 0,00 h 19,6 C 0,0 C 0,0 km/h (0 Bft)
21.06.2023 11:00 28,0 C 20,0 C 25,9 C 18,6 C 0,0 C 0,0 C 59 % 62 % 1016,9 hPa 0,0 l/m 0,0 km/h (0 Bft) - - 0,00 h 19,3 C 0,0 C 0,0 km/h (0 Bft)
21.06.2023 12:00 30,1 C 20,1 C 27,8 C 20,0 C 0,0 C 0,0 C 53 % 56 % 1017,3 hPa 0,0 l/m 0,0 km/h (0 Bft) - - 0,00 h 19,2 C 0,0 C 0,0 km/h (0 Bft)
21.06.2023 13:00 31,0 C 20,2 C 29,9 C 20,6 C 0,0 C 0,0 C 48 % 51 % 1017,2 hPa 0,0 l/m 0,0 km/h (0 Bft) - - 0,00 h 18,7 C 0,0 C 0,0 km/h (0 Bft)
21.06.2023 14:00 29,6 C 20,4 C 29,4 C 19,7 C 0,0 C 0,0 C 49 % 48 % 1017,0 hPa 0,0 l/m 0,0 km/h (0 Bft) - - 0,00 h 17,7 C 0,0 C 0,0 km/h (0 Bft)
21.06.2023 15:00 29,1 C 20,5 C 28,6 C 19,4 C 0,0 C 0,0 C 51 % 50 % 1017,2 hPa 0,0 l/m 0,0 km/h (0 Bft) - - 0,00 h 18,0 C 0,0 C 0,0 km/h (0 Bft)
21.06.2023 16:00 28,2 C 20,6 C 27,4 C 18,8 C 0,0 C 0,0 C 53 % 53 % 1017,3 hPa 0,0 l/m 0,0 km/h (0 Bft) - - 0,00 h 17,8 C 0,0 C 0,0 km/h (0 Bft)
21.06.2023 17:00 28,5 C 20,7 C 27,5 C 19,0 C 0,0 C 0,0 C 54 % 56 % 1017,5 hPa 0,0 l/m 0,0 km/h (0 Bft) - - 0,00 h 18,3 C 0,0 C 0,0 km/h (0 Bft)
21.06.2023 18:00 27,0 C 20,8 C 25,3 C 18,0 C 0,0 C 0,0 C 61 % 64 % 1017,8 hPa 0,0 l/m 0,0 km/h (0 Bft) - - 0,00 h 18,8 C 0,0 C 0,0 km/h (0 Bft)
21.06.2023 19:00 25,4 C 20,9 C 24,2 C 16,9 C 0,0 C 0,0 C 67 % 69 % 1018,3 hPa 0,0 l/m 0,0 km/h (0 Bft) - - 0,00 h 18,9 C 0,0 C 0,0 km/h (0 Bft)
21.06.2023 20:00 23,8 C 20,9 C 22,2 C 15,9 C 0,0 C 0,0 C 72 % 73 % 1018,3 hPa 0,0 l/m 0,0 km/h (0 Bft) - - 0,00 h 18,4 C 0,0 C 0,0 km/h (0 Bft)
21.06.2023 21:00 21,8 C 21,2 C 20,4 C 14,6 C 0,0 C 0,0 C 77 % 79 % 1018,9 hPa 0,0 l/m 0,0 km/h (0 Bft) - - 0,00 h 17,7 C 0,0 C 0,0 km/h (0 Bft)
21.06.2023 22:00 20,3 C 21,2 C 19,0 C 13,5 C 0,0 C 0,0 C 82 % 83 % 1019,2 hPa 0,0 l/m 0,0 km/h (0 Bft) - - 0,00 h 17,0 C 0,0 C 0,0 km/h (0 Bft)
21.06.2023 23:00 19,0 C 21,2 C 18,0 C 12,7 C 0,0 C 0,0 C 84 % 85 % 1019,3 hPa 0,0 l/m 0,0 km/h (0 Bft) - - 0,00 h 16,2 C 0,0 C 0,0 km/h (0 Bft)
22.06.2023 00:00 18,1 C 21,1 C 17,2 C 12,1 C 0,0 C 0,0 C 85 % 86 % 1019,3 hPa 0,0 l/m 0,0 km/h (0 Bft) - - 0,00 h 15,6 C 0,0 C 0,0 km/h (0 Bft)
22.06.2023 01:00 17,4 C 21,0 C 16,7 C 11,6 C 0,0 C 0,0 C 86 % 90 % 1019,1 hPa 0,0 l/m 0,0 km/h (0 Bft) - - 0,00 h 15,1 C 0,0 C 0,0 km/h (0 Bft)
22.06.2023 02:00 16,7 C 20,8 C 16,1 C 11,2 C 0,0 C 0,0 C 87 % 90 % 1019,0 hPa 0,0 l/m 0,0 km/h (0 Bft) - - 0,00 h 14,6 C 0,0 C 0,0 km/h (0 Bft)
22.06.2023 03:00 16,1 C 20,6 C 15,7 C 10,7 C 0,0 C 0,0 C 88 % 90 % 1018,9 hPa 0,0 l/m 0,0 km/h (0 Bft) - - 0,00 h 14,0 C 0,0 C 0,0 km/h (0 Bft)
22.06.2023 04:00 15,5 C 20,5 C 15,2 C 10,3 C 0,0 C 0,0 C 88 % 90 % 1018,6 hPa 0,0 l/m 0,0 km/h (0 Bft) - - 0,00 h 13,5 C 0,0 C 0,0 km/h (0 Bft)
22.06.2023 05:00 15,4 C 20,3 C 16,4 C 10,3 C 0,0 C 0,0 C 88 % 90 % 1019,7 hPa 0,0 l/m 0,0 km/h (0 Bft) - - 0,00 h 13,4 C 0,0 C 0,0 km/h (0 Bft)
22.06.2023 06:00 17,2 C 20,1 C 19,3 C 11,4 C 0,0 C 0,0 C 88 % 86 % 1019,1 hPa 0,0 l/m 0,0 km/h (0 Bft) - - 0,00 h 15,1 C 0,0 C 0,0 km/h (0 Bft)
22.06.2023 07:00 21,1 C 19,9 C 21,5 C 14,0 C 0,0 C 0,0 C 86 % 80 % 1018,5 hPa 0,0 l/m 0,0 km/h (0 Bft) - - 0,00 h 18,6 C 0,0 C 0,0 km/h (0 Bft)
22.06.2023 08:00 24,5 C 19,7 C 23,3 C 16,3 C 0,0 C 0,0 C 76 % 75 % 1018,6 hPa 0,0 l/m 0,0 km/h (0 Bft) - - 0,00 h 19,9 C 0,0 C 0,0 km/h (0 Bft)
22.06.2023 09:00 26,3 C 19,8 C 25,5 C 17,5 C 0,0 C 0,0 C 67 % 67 % 1018,0 hPa 0,0 l/m 0,0 km/h (0 Bft) - - 0,00 h 19,6 C 0,0 C 0,0 km/h (0 Bft)
22.06.2023 10:00 27,7 C 19,9 C 27,0 C 18,5 C 0,0 C 0,0 C 62 % 61 % 1017,6 hPa 0,0 l/m 0,0 km/h (0 Bft) - - 0,00 h 19,8 C 0,0 C 0,0 km/h (0 Bft)
22.06.2023 11:00 28,8 C 20,1 C 28,2 C 19,2 C 0,0 C 0,0 C 59 % 57 % 1017,2 hPa 0,0 l/m 0,0 km/h (0 Bft) - - 0,00 h 19,8 C 0,0 C 0,0 km/h (0 Bft)
22.06.2023 12:00 30,1 C 20,3 C 29,7 C 20,1 C 0,0 C 0,0 C 53 % 53 % 1016,8 hPa 0,0 l/m 0,0 km/h (0 Bft) - - 0,00 h 19,5 C 0,0 C 0,0 km/h (0 Bft)
22.06.2023 13:00 30,8 C 20,6 C 31,6 C 20,5 C 0,0 C 0,0 C 51 % 49 % 1016,0 hPa 0,0 l/m 0,0 km/h (0 Bft) - - 0,00 h 19,4 C 0,0 C 0,0 km/h (0 Bft)
22.06.2023 14:00 31,0 C 20,8 C 31,8 C 20,7 C 0,0 C 0,0 C 50 % 48 % 1015,3 hPa 0,0 l/m 0,0 km/h (0 Bft) - - 0,00 h 19,2 C 0,0 C 0,0 km/h (0 Bft)
22.06.2023 15:00 31,0 C 21,0 C 31,1 C 20,6 C 0,0 C 0,0 C 50 % 49 % 1014,4 hPa 0,0 l/m 0,0 km/h (0 Bft) - - 0,00 h 19,2 C 0,0 C 0,0 km/h (0 Bft)
22.06.2023 16:00 31,0 C 21,2 C 31,5 C 20,7 C 0,0 C 0,0 C 50 % 49 % 1013,7 hPa 0,0 l/m 0,0 km/h (0 Bft) - - 0,00 h 19,4 C 0,0 C 0,0 km/h (0 Bft)
22.06.2023 17:00 30,8 C 21,3 C 30,5 C 20,6 C 0,0 C 0,0 C 51 % 51 % 1013,0 hPa 0,0 l/m 0,0 km/h (0 Bft) - - 0,00 h 19,5 C 0,0 C 0,0 km/h (0 Bft)
22.06.2023 18:00 29,4 C 21,4 C 28,6 C 19,6 C 0,0 C 0,0 C 55 % 55 % 1012,1 hPa 0,0 l/m 0,0 km/h (0 Bft) - - 0,00 h 19,5 C 0,0 C 0,0 km/h (0 Bft)
22.06.2023 19:00 28,1 C 21,5 C 27,3 C 18,7 C 0,0 C 0,0 C 59 % 58 % 1011,3 hPa 0,0 l/m 0,0 km/h (0 Bft) - - 0,00 h 19,3 C 0,0 C 0,0 km/h (0 Bft)
22.06.2023 20:00 27,1 C 21,6 C 26,2 C 18,0 C 0,0 C 0,0 C 63 % 62 % 1011,0 hPa 0,0 l/m 0,0 km/h (0 Bft) - - 0,00 h 19,3 C 0,0 C 0,0 km/h (0 Bft)
22.06.2023 21:00 26,1 C 21,6 C 25,3 C 17,4 C 0,0 C 0,0 C 66 % 65 % 1011,3 hPa 0,0 l/m 0,0 km/h (0 Bft) - - 0,00 h 19,3 C 0,0 C 0,0 km/h (0 Bft)
22.06.2023 22:00 24,5 C 21,6 C 22,6 C 16,3 C 0,0 C 0,0 C 75 % 82 % 1012,0 hPa 0,7 l/m 0,0 km/h (0 Bft) - - 0,00 h 19,7 C 0,0 C 0,0 km/h (0 Bft)
22.06.2023 23:00 21,7 C 21,6 C 20,4 C 14,5 C 0,0 C 0,0 C 83 % 90 % 1013,3 hPa 6,2 l/m 0,0 km/h (0 Bft) - - 0,00 h 18,8 C 0,0 C 0,0 km/h (0 Bft)
23.06.2023 00:00 19,1 C 21,7 C 18,6 C 12,8 C 0,0 C 0,0 C 86 % 90 % 1013,3 hPa 8,9 l/m 0,0 km/h (0 Bft) - - 0,00 h 16,8 C 0,0 C 0,0 km/h (0 Bft)
23.06.2023 01:00 18,3 C 23,0 C 18,6 C 12,2 C 0,0 C 0,0 C 87 % 90 % 1012,6 hPa 4,8 l/m 0,0 km/h (0 Bft) - - 0,00 h 16,1 C 0,0 C 0,0 km/h (0 Bft)
23.06.2023 02:00 17,6 C 23,1 C 18,2 C 11,7 C 0,0 C 0,0 C 88 % 90 % 1011,6 hPa 0,0 l/m 0,0 km/h (0 Bft) - - 0,00 h 15,6 C 0,0 C 0,0 km/h (0 Bft)
23.06.2023 03:00 17,5 C 22,8 C 18,2 C 11,7 C 0,0 C 0,0 C 88 % 90 % 1011,8 hPa 0,0 l/m 0,0 km/h (0 Bft) - - 0,00 h 15,5 C 0,0 C 0,0 km/h (0 Bft)
23.06.2023 04:00 17,4 C 22,7 C 18,4 C 11,6 C 0,0 C 0,0 C 88 % 90 % 1011,6 hPa 0,0 l/m 0,0 km/h (0 Bft) - - 0,00 h 15,4 C 0,0 C 0,0 km/h (0 Bft)
23.06.2023 05:00 17,7 C 22,7 C 18,9 C 11,8 C 0,0 C 0,0 C 88 % 90 % 1011,8 hPa 0,0 l/m 0,0 km/h (0 Bft) - - 0,00 h 15,7 C 0,0 C 0,0 km/h (0 Bft)
23.06.2023 06:00 18,3 C 22,7 C 19,6 C 12,2 C 0,0 C 0,0 C 88 % 90 % 1012,2 hPa 0,0 l/m 0,0 km/h (0 Bft) - - 0,00 h 16,3 C 0,0 C 0,0 km/h (0 Bft)
23.06.2023 07:00 18,3 C 22,4 C 19,1 C 12,2 C 0,0 C 0,0 C 88 % 90 % 1012,6 hPa 0,0 l/m 0,0 km/h (0 Bft) - - 0,00 h 16,2 C 0,0 C 0,0 km/h (0 Bft)
23.06.2023 08:00 18,7 C 22,0 C 18,2 C 12,5 C 0,0 C 0,0 C 86 % 90 % 1013,0 hPa 0,0 l/m 0,0 km/h (0 Bft) - - 0,00 h 16,3 C 0,0 C 0,0 km/h (0 Bft)
23.06.2023 09:00 19,6 C 21,7 C 18,5 C 13,1 C 0,0 C 0,0 C 80 % 90 % 1013,5 hPa 0,0 l/m 0,0 km/h (0 Bft) - - 0,00 h 16,1 C 0,0 C 0,0 km/h (0 Bft)
23.06.2023 10:00 20,0 C 21,6 C 19,2 C 13,3 C 0,0 C 0,0 C 76 % 89 % 1014,0 hPa 0,0 l/m 0,0 km/h (0 Bft) - - 0,00 h 15,6 C 0,0 C 0,0 km/h (0 Bft)
23.06.2023 11:00 19,8 C 21,5 C 19,2 C 13,2 C 0,0 C 0,0 C 76 % 78 % 1014,5 hPa 0,0 l/m 0,0 km/h (0 Bft) - - 0,00 h 15,5 C 0,0 C 0,0 km/h (0 Bft)
23.06.2023 12:00 19,2 C 21,5 C 18,8 C 12,8 C 0,0 C 0,0 C 80 % 79 % 1015,1 hPa 0,0 l/m 0,0 km/h (0 Bft) - - 0,00 h 15,5 C 0,0 C 0,0 km/h (0 Bft)
23.06.2023 13:00 18,8 C 21,6 C 18,7 C 12,5 C 0,0 C 0,0 C 83 % 82 % 1015,3 hPa 0,0 l/m 0,0 km/h (0 Bft) - - 0,00 h 15,7 C 0,0 C 0,0 km/h (0 Bft)
23.06.2023 14:00 18,0 C 21,8 C 17,6 C 12,0 C 0,0 C 0,0 C 86 % 90 % 1015,4 hPa 0,0 l/m 0,0 km/h (0 Bft) - - 0,00 h 15,5 C 0,0 C 0,0 km/h (0 Bft)
23.06.2023 15:00 16,4 C 21,7 C 16,3 C 10,9 C 0,0 C 0,0 C 87 % 90 % 1016,2 hPa 0,0 l/m 0,0 km/h (0 Bft) - - 0,00 h 14,3 C 0,0 C 0,0 km/h (0 Bft)
23.06.2023 16:00 15,3 C 21,5 C 15,7 C 10,2 C 0,0 C 0,0 C 88 % 90 % 1017,2 hPa 1,4 l/m 0,0 km/h (0 Bft) - - 0,00 h 13,3 C 0,0 C 0,0 km/h (0 Bft)
23.06.2023 17:00 14,5 C 21,4 C 15,0 C 9,6 C 0,0 C 0,0 C 88 % 90 % 1018,2 hPa 0,7 l/m 0,0 km/h (0 Bft) - - 0,00 h 12,5 C 0,0 C 0,0 km/h (0 Bft)
23.06.2023 18:00 13,8 C 21,3 C 14,4 C 9,2 C 0,0 C 0,0 C 88 % 90 % 1019,5 hPa 1,4 l/m 0,0 km/h (0 Bft) - - 0,00 h 11,8 C 0,0 C 0,0 km/h (0 Bft)
23.06.2023 19:00 13,3 C 21,1 C 14,2 C 8,9 C 0,0 C 0,0 C 88 % 90 % 1021,1 hPa 2,7 l/m 0,0 km/h (0 Bft) - - 0,00 h 11,4 C 0,0 C 0,0 km/h (0 Bft)
23.06.2023 20:00 13,4 C 21,1 C 14,7 C 9,0 C 0,0 C 0,0 C 88 % 90 % 1021,9 hPa 0,7 l/m 0,0 km/h (0 Bft) - - 0,00 h 11,6 C 0,0 C 0,0 km/h (0 Bft)
23.06.2023 21:00 13,4 C 21,1 C 14,6 C 9,0 C 0,0 C 0,0 C 88 % 90 % 1022,4 hPa 0,0 l/m 0,0 km/h (0 Bft) - - 0,00 h 11,6 C 0,0 C 0,0 km/h (0 Bft)
23.06.2023 22:00 13,4 C 21,1 C 14,8 C 9,0 C 0,0 C 0,0 C 89 % 90 % 1022,7 hPa 0,0 l/m 0,0 km/h (0 Bft) - - 0,00 h 11,6 C 0,0 C 0,0 km/h (0 Bft)
23.06.2023 23:00 13,6 C 21,1 C 14,9 C 9,1 C 0,0 C 0,0 C 89 % 90 % 1022,9 hPa 0,0 l/m 0,0 km/h (0 Bft) - - 0,00 h 11,8 C 0,0 C 0,0 km/h (0 Bft)
24.06.2023 00:00 13,6 C 21,1 C 14,9 C 9,1 C 0,0 C 0,0 C 89 % 90 % 1023,2 hPa 0,0 l/m 0,0 km/h (0 Bft) - - 0,00 h 11,9 C 0,0 C 0,0 km/h (0 Bft)
24.06.2023 01:00 13,5 C 21,1 C 14,8 C 9,0 C 0,0 C 0,0 C 89 % 90 % 1023,1 hPa 0,0 l/m 0,0 km/h (0 Bft) - - 0,00 h 11,7 C 0,0 C 0,0 km/h (0 Bft)
24.06.2023 02:00 13,4 C 20,8 C 14,5 C 8,9 C 0,0 C 0,0 C 89 % 90 % 1023,1 hPa 0,0 l/m 0,0 km/h (0 Bft) - - 0,00 h 11,6 C 0,0 C 0,0 km/h (0 Bft)
24.06.2023 03:00 13,0 C 20,4 C 13,9 C 8,7 C 0,0 C 0,0 C 89 % 90 % 1023,0 hPa 0,0 l/m 0,0 km/h (0 Bft) - - 0,00 h 11,2 C 0,0 C 0,0 km/h (0 Bft)
24.06.2023 04:00 12,6 C 20,3 C 13,6 C 8,4 C 0,0 C 0,0 C 89 % 90 % 1023,3 hPa 0,0 l/m 0,0 km/h (0 Bft) - - 0,00 h 10,8 C 0,0 C 0,0 km/h (0 Bft)
24.06.2023 05:00 12,9 C 20,2 C 14,5 C 8,6 C 0,0 C 0,0 C 89 % 90 % 1023,8 hPa 0,0 l/m 0,0 km/h (0 Bft) - - 0,00 h 11,1 C 0,0 C 0,0 km/h (0 Bft)
24.06.2023 06:00 13,9 C 20,2 C 14,9 C 9,3 C 0,0 C 0,0 C 89 % 90 % 1024,4 hPa 0,0 l/m 0,0 km/h (0 Bft) - - 0,00 h 12,1 C 0,0 C 0,0 km/h (0 Bft)
24.06.2023 07:00 14,4 C 19,9 C 15,1 C 9,6 C 0,0 C 0,0 C 89 % 90 % 1024,4 hPa 0,0 l/m 0,0 km/h (0 Bft) - - 0,00 h 12,6 C 0,0 C 0,0 km/h (0 Bft)
24.06.2023 08:00 14,3 C 19,7 C 15,3 C 9,5 C 0,0 C 0,0 C 89 % 90 % 1024,6 hPa 0,0 l/m 0,0 km/h (0 Bft) - - 0,00 h 12,4 C 0,0 C 0,0 km/h (0 Bft)
24.06.2023 09:00 16,0 C 19,6 C 16,3 C 10,7 C 0,0 C 0,0 C 87 % 90 % 1024,8 hPa 0,0 l/m 0,0 km/h (0 Bft) - - 0,00 h 13,9 C 0,0 C 0,0 km/h (0 Bft)
24.06.2023 10:00 18,5 C 19,6 C 17,0 C 12,3 C 0,0 C 0,0 C 78 % 90 % 1024,6 hPa 0,0 l/m 0,0 km/h (0 Bft) - - 0,00 h 14,6 C 0,0 C 0,0 km/h (0 Bft)
24.06.2023 11:00 20,5 C 19,5 C 18,4 C 13,7 C 0,0 C 0,0 C 70 % 80 % 1024,6 hPa 0,0 l/m 0,0 km/h (0 Bft) - - 0,00 h 14,8 C 0,0 C 0,0 km/h (0 Bft)
24.06.2023 12:00 23,1 C 19,5 C 20,0 C 15,4 C 0,0 C 0,0 C 61 % 68 % 1024,2 hPa 0,0 l/m 0,0 km/h (0 Bft) - - 0,00 h 15,2 C 0,0 C 0,0 km/h (0 Bft)
24.06.2023 13:00 24,3 C 19,6 C 23,4 C 16,2 C 0,0 C 0,0 C 57 % 60 % 1023,7 hPa 0,0 l/m 0,0 km/h (0 Bft) - - 0,00 h 15,2 C 0,0 C 0,0 km/h (0 Bft)
24.06.2023 14:00 24,0 C 19,7 C 24,1 C 16,0 C 0,0 C 0,0 C 57 % 55 % 1023,5 hPa 0,0 l/m 0,0 km/h (0 Bft) - - 0,00 h 14,8 C 0,0 C 0,0 km/h (0 Bft)
24.06.2023 15:00 24,5 C 19,8 C 24,5 C 16,3 C 0,0 C 0,0 C 55 % 53 % 1023,1 hPa 0,0 l/m 0,0 km/h (0 Bft) - - 0,00 h 14,8 C 0,0 C 0,0 km/h (0 Bft)
24.06.2023 16:00 24,9 C 19,9 C 25,0 C 16,6 C 0,0 C 0,0 C 53 % 51 % 1022,7 hPa 0,0 l/m 0,0 km/h (0 Bft) - - 0,00 h 14,7 C 0,0 C 0,0 km/h (0 Bft)
24.06.2023 17:00 25,0 C 20,1 C 24,1 C 16,7 C 0,0 C 0,0 C 52 % 50 % 1022,7 hPa 0,0 l/m 0,0 km/h (0 Bft) - - 0,00 h 14,6 C 0,0 C 0,0 km/h (0 Bft)
24.06.2023 19:00 24,3 C 20,2 C 23,1 C 16,2 C 0,0 C 0,0 C 54 % 51 % 1023,9 hPa 0,0 l/m 0,0 km/h (0 Bft) - - 0,00 h 14,4 C 0,0 C 0,0 km/h (0 Bft)
24.06.2023 20:00 23,1 C 20,3 C 21,4 C 15,4 C 0,0 C 0,0 C 58 % 58 % 1023,7 hPa 0,0 l/m 0,0 km/h (0 Bft) - - 0,00 h 14,3 C 0,0 C 0,0 km/h (0 Bft)
24.06.2023 21:00 20,6 C 20,4 C 18,7 C 13,7 C 0,0 C 0,0 C 67 % 69 % 1023,4 hPa 0,0 l/m 0,0 km/h (0 Bft) - - 0,00 h 14,2 C 0,0 C 0,0 km/h (0 Bft)
24.06.2023 22:00 18,1 C 20,7 C 16,5 C 12,1 C 0,0 C 0,0 C 75 % 78 % 1023,0 hPa 0,0 l/m 0,0 km/h (0 Bft) - - 0,00 h 13,6 C 0,0 C 0,0 km/h (0 Bft)
24.06.2023 23:00 16,5 C 20,8 C 15,2 C 11,0 C 0,0 C 0,0 C 80 % 83 % 1022,8 hPa 0,0 l/m 0,0 km/h (0 Bft) - - 0,00 h 13,0 C 0,0 C 0,0 km/h (0 Bft)
25.06.2023 00:00 15,3 C 20,8 C 14,3 C 10,2 C 0,0 C 0,0 C 83 % 89 % 1022,7 hPa 0,0 l/m 0,0 km/h (0 Bft) - - 0,00 h 12,4 C 0,0 C 0,0 km/h (0 Bft)
25.06.2023 01:00 14,4 C 20,8 C 13,5 C 9,6 C 0,0 C 0,0 C 85 % 90 % 1022,5 hPa 0,0 l/m 0,0 km/h (0 Bft) - - 0,00 h 11,8 C 0,0 C 0,0 km/h (0 Bft)
25.06.2023 02:00 13,7 C 20,6 C 13,0 C 9,2 C 0,0 C 0,0 C 86 % 90 % 1022,3 hPa 0,0 l/m 0,0 km/h (0 Bft) - - 0,00 h 11,4 C 0,0 C 0,0 km/h (0 Bft)
25.06.2023 03:00 13,2 C 20,5 C 12,5 C 8,8 C 0,0 C 0,0 C 87 % 90 % 1022,1 hPa 0,0 l/m 0,0 km/h (0 Bft) - - 0,00 h 11,0 C 0,0 C 0,0 km/h (0 Bft)
25.06.2023 04:00 12,6 C 20,4 C 12,1 C 8,4 C 0,0 C 0,0 C 87 % 90 % 1021,8 hPa 0,0 l/m 0,0 km/h (0 Bft) - - 0,00 h 10,5 C 0,0 C 0,0 km/h (0 Bft)
25.06.2023 05:00 12,1 C 20,3 C 11,9 C 8,1 C 0,0 C 0,0 C 87 % 90 % 1021,6 hPa 0,0 l/m 0,0 km/h (0 Bft) - - 0,00 h 10,0 C 0,0 C 0,0 km/h (0 Bft)
25.06.2023 06:00 12,1 C 20,1 C 12,4 C 8,1 C 0,0 C 0,0 C 88 % 90 % 1021,5 hPa 0,0 l/m 0,0 km/h (0 Bft) - - 0,00 h 10,2 C 0,0 C 0,0 km/h (0 Bft)
25.06.2023 07:00 13,7 C 19,8 C 14,8 C 9,2 C 0,0 C 0,0 C 88 % 90 % 1021,5 hPa 0,0 l/m 0,0 km/h (0 Bft) - - 0,00 h 11,8 C 0,0 C 0,0 km/h (0 Bft)
25.06.2023 08:00 18,4 C 19,6 C 16,5 C 12,3 C 0,0 C 0,0 C 84 % 87 % 1021,4 hPa 0,0 l/m 0,0 km/h (0 Bft) - - 0,00 h 15,6 C 0,0 C 0,0 km/h (0 Bft)
25.06.2023 09:00 21,9 C 19,5 C 18,2 C 14,6 C 0,0 C 0,0 C 71 % 80 % 1021,2 hPa 0,0 l/m 0,0 km/h (0 Bft) - - 0,00 h 16,5 C 0,0 C 0,0 km/h (0 Bft)
25.06.2023 10:00 23,2 C 19,6 C 19,9 C 15,4 C 0,0 C 0,0 C 61 % 67 % 1021,4 hPa 0,0 l/m 0,0 km/h (0 Bft) - - 0,00 h 15,1 C 0,0 C 0,0 km/h (0 Bft)
25.06.2023 11:00 25,3 C 19,8 C 22,2 C 16,9 C 0,0 C 0,0 C 55 % 58 % 1021,2 hPa 0,0 l/m 0,0 km/h (0 Bft) - - 0,00 h 15,5 C 0,0 C 0,0 km/h (0 Bft)
25.06.2023 12:00 27,0 C 19,9 C 23,7 C 18,0 C 0,0 C 0,0 C 51 % 56 % 1021,1 hPa 0,0 l/m 0,0 km/h (0 Bft) - - 0,00 h 15,9 C 0,0 C 0,0 km/h (0 Bft)
25.06.2023 13:00 26,3 C 20,1 C 24,1 C 17,5 C 0,0 C 0,0 C 52 % 55 % 1020,6 hPa 0,0 l/m 0,0 km/h (0 Bft) - - 0,00 h 15,7 C 0,0 C 0,0 km/h (0 Bft)
25.06.2023 14:00 27,0 C 20,3 C 26,3 C 18,0 C 0,0 C 0,0 C 51 % 52 % 1020,1 hPa 0,0 l/m 0,0 km/h (0 Bft) - - 0,00 h 15,9 C 0,0 C 0,0 km/h (0 Bft)
25.06.2023 15:00 26,1 C 20,5 C 25,4 C 17,4 C 0,0 C 0,0 C 53 % 53 % 1019,5 hPa 0,0 l/m 0,0 km/h (0 Bft) - - 0,00 h 15,7 C 0,0 C 0,0 km/h (0 Bft)
25.06.2023 16:00 26,2 C 20,7 C 26,2 C 17,4 C 0,0 C 0,0 C 52 % 51 % 1019,1 hPa 0,0 l/m 0,0 km/h (0 Bft) - - 0,00 h 15,5 C 0,0 C 0,0 km/h (0 Bft)
25.06.2023 17:00 26,5 C 20,8 C 26,9 C 17,7 C 0,0 C 0,0 C 52 % 49 % 1018,7 hPa 0,0 l/m 0,0 km/h (0 Bft) - - 0,00 h 15,7 C 0,0 C 0,0 km/h (0 Bft)
25.06.2023 18:00 26,6 C 20,9 C 25,8 C 17,7 C 0,0 C 0,0 C 52 % 50 % 1018,3 hPa 0,0 l/m 0,0 km/h (0 Bft) - - 0,00 h 15,9 C 0,0 C 0,0 km/h (0 Bft)
25.06.2023 19:00 26,1 C 21,1 C 25,2 C 17,4 C 0,0 C 0,0 C 54 % 52 % 1017,9 hPa 0,0 l/m 0,0 km/h (0 Bft) - - 0,00 h 16,0 C 0,0 C 0,0 km/h (0 Bft)
25.06.2023 20:00 25,0 C 21,2 C 23,5 C 16,7 C 0,0 C 0,0 C 59 % 62 % 1017,8 hPa 0,0 l/m 0,0 km/h (0 Bft) - - 0,00 h 16,5 C 0,0 C 0,0 km/h (0 Bft)
25.06.2023 21:00 22,9 C 21,3 C 21,0 C 15,3 C 0,0 C 0,0 C 67 % 71 % 1017,6 hPa 0,0 l/m 0,0 km/h (0 Bft) - - 0,00 h 16,5 C 0,0 C 0,0 km/h (0 Bft)
25.06.2023 22:00 20,4 C 21,5 C 18,8 C 13,6 C 0,0 C 0,0 C 75 % 79 % 1017,7 hPa 0,0 l/m 0,0 km/h (0 Bft) - - 0,00 h 15,9 C 0,0 C 0,0 km/h (0 Bft)
25.06.2023 23:00 18,9 C 21,7 C 17,6 C 12,6 C 0,0 C 0,0 C 79 % 83 % 1017,4 hPa 0,0 l/m 0,0 km/h (0 Bft) - - 0,00 h 15,2 C 0,0 C 0,0 km/h (0 Bft)
Min-Datum _ 25.06.23 19.06.23 25.06.23 25.06.23 20.06.23 19.06.23 19.06.23 19.06.23 22.06.23 - 19.06.23 - - 25.06.23 20.06.23 19.06.23
_ Min-Zeit 05:30 08:20 05:15 05:30 02:56 12:51 13:50 17:10 20:36 - 00:00 - - 05:30 02:56 00:00
Minimum _ 12,0 C 17,7 C 11,7 C 8,0 C 0,0 C 0,0 C 43 % 45 % 1010,8 hPa - 0,0 km/h (0 Bft) - - 9,9 C 0,0 C 0,0 km/h (0 Bft)
Max-Datum _ 22.06.23 23.06.23 22.06.23 19.06.23 19.06.23 19.06.23 24.06.23 21.06.23 24.06.23 23.06.23 19.06.23 - 19.06.23 20.06.23 19.06.23 19.06.23
_ Max-Zeit 14:41 01:31 13:56 14:12 00:00 03:05 07:41 01:11 09:36 00:56 00:00 - 06:52 17:21 00:00 00:00
Maximum _ 31,3 C 23,2 C 32,6 C 30,1 C 29,0 C 14,9 C 90 % 90 % 1025,0 hPa 8,9 l/m 0,0 km/h
- - (0 Bft)
- 0,35 h 21,0 C 29,0 C 0,0 km/h
- - (0 Bft)
Durchschnitt _ 21,3 C 20,3 C 20,8 C 16,6 C 4,7 C 1,2 C 73 % 74 % 1017,1 hPa #28,2 l/m 0,0 km/h (0 Bft) - - #8:00 h 15,9 C 4,7 C 0,0 km/h (0 Bft)
2023 www.wetterstation-wechselburg.de